Hibernia, South Carolina
Current Conditions -  °F | °C
As of 8:35 PM on Friday 21 Nov 2014 (Local Time) from KAIK Reporting Station
Clear Clear  
Wind Chill: 39°   Ceiling: Unl
Heat Index: 43°   Visibility: 10mi
Dew Point: 32°   Wind: 7mph
Humidity: 66%   Direction: 70°ENE
Pressure: 30.46"   Gusts: NA
Location:  33.7495°N, 81.5464°W
Report Text: KAIK 220135Z AUTO 07006KT 10SM CLR 06/00 A3046 RMK AO2 PNO
Loading
Personal Weather Stations






























Interactive Weather Map New forecast layout! Learn more

10-Day Weather Forecast

Advertisements
Track Severe Weather on mobile